Time;durP1;ratioP1;P1;durP2;ratioP2;P2;SDS_P1;SDS_P2;PMS_P1;PMS_P2;Temp;Humidity;BMP_temperature;BMP_pressure;BME280_temperature;BME280_humidity;BME280_pressure;Samples;Min_cycle;Max_cycle;Signal;HPM_P1;HPM_P2
2022/05/03 00:01:56;;;;;;;10.90;6.72;;;14.00;99.90;;;;;;5032004;28;20212;-76
2022/05/03 00:04:53;;;;;;;11.80;6.93;;;13.90;99.90;;;;;;5031769;28;20291;-74
2022/05/03 00:07:43;;;;;;;10.43;6.72;;;14.00;99.90;;;;;;5031706;28;20763;-75
2022/05/03 00:10:15;;;;;;;9.18;6.93;;;14.00;99.90;;;;;;5032835;28;20596;-76
2022/05/03 00:12:44;;;;;;;8.93;6.22;;;13.80;99.90;;;;;;5031512;28;20958;-75
2022/05/03 00:15:12;;;;;;;7.30;6.07;;;13.90;99.90;;;;;;5031255;28;20176;-75
2022/05/03 00:17:41;;;;;;;9.57;6.55;;;13.90;99.90;;;;;;5031761;28;20211;-75
2022/05/03 00:20:07;;;;;;;10.77;7.38;;;13.80;99.90;;;;;;5031153;28;20752;-75
2022/05/03 00:22:34;;;;;;;8.32;6.63;;;13.80;99.90;;;;;;5032678;28;20212;-75
2022/05/03 00:24:59;;;;;;;8.70;6.37;;;13.70;99.90;;;;;;5030981;28;20258;-75
2022/05/03 00:27:27;;;;;;;10.67;6.60;;;13.60;99.90;;;;;;5030839;28;20650;-75
2022/05/03 00:29:55;;;;;;;8.95;6.47;;;13.50;99.90;;;;;;5031711;28;20176;-75
2022/05/03 00:32:21;;;;;;;10.88;7.68;;;13.50;99.90;;;;;;5032249;28;20724;-75
2022/05/03 00:34:49;;;;;;;11.43;6.67;;;13.50;99.90;;;;;;5024261;28;20296;-75
2022/05/03 00:37:15;;;;;;;9.40;6.33;;;13.60;99.90;;;;;;5031958;28;20208;-75
2022/05/03 00:39:40;;;;;;;9.05;6.90;;;13.60;99.90;;;;;;5032233;28;20208;-75
2022/05/03 00:42:14;;;;;;;10.68;7.00;;;13.50;99.90;;;;;;5030831;28;20226;-75
2022/05/03 00:45:01;;;;;;;8.20;6.70;;;13.60;99.90;;;;;;5034890;23;20324;-75
2022/05/03 00:47:43;;;;;;;9.70;6.43;;;13.60;99.90;;;;;;5011925;28;20208;-75
2022/05/03 00:50:30;;;;;;;10.02;7.68;;;13.50;99.90;;;;;;5010160;28;20235;-75
2022/05/03 00:53:06;;;;;;;9.35;6.68;;;13.40;99.90;;;;;;4998884;28;20640;-75
2022/05/03 00:55:49;;;;;;;8.30;6.43;;;13.50;99.90;;;;;;4992513;28;20217;-75
2022/05/03 00:58:35;;;;;;;9.37;6.50;;;13.60;99.90;;;;;;4991513;28;20774;-76
2022/05/03 01:01:05;;;;;;;13.30;6.47;;;13.70;99.90;;;;;;4992370;28;20210;-75
2022/05/03 01:03:48;;;;;;;8.32;6.88;;;13.80;99.90;;;;;;4992003;28;20214;-75
2022/05/03 01:06:37;;;;;;;10.13;7.13;;;13.70;99.90;;;;;;4991998;28;20177;-75
2022/05/03 01:09:07;;;;;;;11.13;7.07;;;13.70;99.90;;;;;;4978615;28;20650;-75
2022/05/03 01:11:47;;;;;;;9.97;7.37;;;13.70;99.90;;;;;;4991158;28;20193;-75
2022/05/03 01:14:36;;;;;;;8.88;6.68;;;13.60;99.90;;;;;;4991805;28;20209;-75
2022/05/03 01:17:24;;;;;;;10.07;7.33;;;13.60;99.90;;;;;;4980312;28;20214;-75
2022/05/03 01:20:07;;;;;;;11.25;7.15;;;13.60;99.90;;;;;;4976377;28;20213;-75
2022/05/03 01:23:03;;;;;;;10.27;7.53;;;13.40;99.90;;;;;;4991745;28;20215;-75
2022/05/03 01:26:06;;;;;;;8.25;6.40;;;13.40;99.90;;;;;;4991937;28;20237;-75
2022/05/03 01:28:46;;;;;;;8.87;7.33;;;13.30;99.90;;;;;;4988736;28;20640;-75
2022/05/03 01:31:14;;;;;;;9.60;7.10;;;13.20;99.90;;;;;;4991709;28;20201;-75
2022/05/03 01:33:48;;;;;;;9.80;6.50;;;13.30;99.90;;;;;;4991741;28;20640;-75
2022/05/03 01:36:26;;;;;;;8.37;6.40;;;13.30;99.90;;;;;;4991685;28;20178;-75
2022/05/03 01:39:04;;;;;;;9.17;6.67;;;13.20;99.90;;;;;;4976925;28;20248;-74
2022/05/03 01:41:49;;;;;;;10.57;6.80;;;13.00;99.90;;;;;;4991866;28;20750;-75
2022/05/03 01:44:39;;;;;;;8.90;6.83;;;13.10;99.90;;;;;;4990088;28;20221;-74
2022/05/03 01:47:22;;;;;;;9.50;6.73;;;13.10;99.90;;;;;;4967548;28;20213;-74
2022/05/03 01:50:26;;;;;;;8.03;6.47;;;13.00;99.90;;;;;;4990892;28;20205;-74
2022/05/03 01:53:05;;;;;;;10.73;6.70;;;12.90;99.90;;;;;;4978383;28;20212;-74
2022/05/03 01:55:55;;;;;;;9.70;6.60;;;12.80;99.90;;;;;;4988718;28;20292;-74
2022/05/03 01:58:48;;;;;;;9.20;6.50;;;12.80;99.90;;;;;;4990647;28;20670;-74
2022/05/03 02:01:25;;;;;;;10.67;6.60;;;12.90;99.90;;;;;;4991368;28;20205;-76
2022/05/03 02:03:58;;;;;;;10.17;6.67;;;12.90;99.90;;;;;;4975475;28;20209;-74
2022/05/03 02:06:39;;;;;;;11.73;6.80;;;12.90;99.90;;;;;;4989764;28;20293;-74
2022/05/03 02:09:05;;;;;;;8.73;7.20;;;12.90;99.90;;;;;;4979884;28;20182;-74
2022/05/03 02:11:46;;;;;;;9.07;6.60;;;12.70;99.90;;;;;;4991813;28;20178;-74
2022/05/03 02:17:30;;;;;;;7.83;6.93;;;12.70;99.90;;;;;;4991476;28;20300;-74
2022/05/03 02:20:33;;;;;;;8.70;7.30;;;12.50;99.90;;;;;;4989410;28;20621;-75
2022/05/03 02:23:36;;;;;;;9.93;7.80;;;12.60;99.90;;;;;;4991205;28;20208;-75
2022/05/03 02:26:36;;;;;;;13.03;7.57;;;12.60;99.90;;;;;;4992271;28;20340;-74
2022/05/03 02:29:10;;;;;;;9.03;7.70;;;12.50;99.90;;;;;;4992430;28;20288;-75
2022/05/03 02:32:11;;;;;;;12.03;7.67;;;12.40;99.90;;;;;;4989827;28;20296;-75
2022/05/03 02:34:46;;;;;;;15.27;7.87;;;12.30;99.90;;;;;;4991015;28;20260;-75
2022/05/03 02:37:19;;;;;;;13.20;7.00;;;12.20;99.90;;;;;;4983033;28;20220;-74
2022/05/03 02:39:59;;;;;;;11.37;7.40;;;12.20;99.90;;;;;;4991084;28;20209;-74
2022/05/03 02:42:25;;;;;;;12.63;7.60;;;12.30;99.90;;;;;;4994578;28;20209;-74
2022/05/03 02:44:54;;;;;;;9.83;7.93;;;12.20;99.90;;;;;;4993734;28;20268;-74
2022/05/03 02:47:44;;;;;;;9.07;6.83;;;12.20;99.90;;;;;;4993183;28;20260;-73
2022/05/03 02:50:12;;;;;;;11.03;8.17;;;12.20;99.90;;;;;;4964068;28;20210;-74
2022/05/03 02:52:57;;;;;;;12.40;7.77;;;12.20;99.90;;;;;;4973363;28;20206;-74
2022/05/03 02:55:59;;;;;;;8.70;6.33;;;12.20;99.90;;;;;;4974660;28;20214;-73
2022/05/03 02:58:47;;;;;;;10.57;7.10;;;12.20;99.90;;;;;;4973854;28;20218;-73
2022/05/03 03:01:47;;;;;;;10.50;7.60;;;12.10;99.90;;;;;;4973612;28;20211;-74
2022/05/03 03:04:34;;;;;;;9.53;6.33;;;12.10;99.90;;;;;;4974807;28;20761;-73
2022/05/03 03:07:02;;;;;;;10.60;7.37;;;12.10;99.90;;;;;;4974554;28;20206;-74
2022/05/03 03:09:56;;;;;;;13.33;6.83;;;12.00;99.90;;;;;;4981825;28;20220;-73
2022/05/03 03:12:44;;;;;;;10.10;6.97;;;11.90;99.90;;;;;;4968322;28;20207;-71
2022/05/03 03:15:10;;;;;;;10.37;6.47;;;11.90;99.90;;;;;;4973627;28;20257;-73
2022/05/03 03:17:41;;;;;;;12.03;7.23;;;11.90;99.90;;;;;;4974748;28;20653;-73
2022/05/03 03:20:09;;;;;;;9.50;6.60;;;11.90;99.90;;;;;;4976031;28;20206;-72
2022/05/03 03:22:47;;;;;;;9.70;6.73;;;11.90;99.90;;;;;;4974216;28;20637;-73
2022/05/03 03:25:14;;;;;;;12.70;7.23;;;11.80;99.90;;;;;;4974459;28;20210;-74
2022/05/03 03:27:43;;;;;;;12.13;6.67;;;11.80;99.90;;;;;;4972899;28;20221;-73
2022/05/03 03:30:10;;;;;;;11.60;7.10;;;11.60;99.90;;;;;;4972879;28;20194;-74
2022/05/03 03:32:39;;;;;;;9.17;6.83;;;11.60;99.90;;;;;;4976722;28;20166;-74
2022/05/03 03:35:05;;;;;;;8.53;6.80;;;11.60;99.90;;;;;;4977911;28;20214;-74
2022/05/03 03:37:35;;;;;;;8.67;6.70;;;11.60;99.90;;;;;;4972623;28;20607;-74
2022/05/03 03:40:05;;;;;;;11.27;6.63;;;11.60;99.90;;;;;;4972104;28;20198;-74
2022/05/03 03:42:30;;;;;;;13.43;7.07;;;11.60;99.90;;;;;;4973978;28;20217;-74
2022/05/03 03:45:01;;;;;;;11.13;7.20;;;11.60;99.90;;;;;;4974311;28;20222;-74
2022/05/03 03:47:29;;;;;;;12.57;7.37;;;11.70;99.90;;;;;;4973896;28;20699;-73
2022/05/03 03:49:56;;;;;;;10.07;6.77;;;11.70;99.90;;;;;;4974510;28;20211;-73
2022/05/03 03:52:23;;;;;;;9.70;6.50;;;11.70;99.90;;;;;;4972263;28;20564;-74
2022/05/03 03:54:49;;;;;;;11.27;7.33;;;11.80;99.90;;;;;;4973909;28;20217;-74
2022/05/03 03:57:15;;;;;;;9.63;7.77;;;11.70;99.90;;;;;;4973506;28;20207;-74
2022/05/03 03:59:41;;;;;;;12.30;7.27;;;11.70;99.90;;;;;;4973398;28;20785;-74
2022/05/03 04:02:06;;;;;;;9.30;7.07;;;11.80;99.90;;;;;;4973796;28;20206;-74
2022/05/03 04:04:36;;;;;;;10.27;7.10;;;11.80;99.90;;;;;;4972133;28;20302;-74
2022/05/03 04:07:02;;;;;;;15.80;6.67;;;11.90;99.90;;;;;;4973557;28;20214;-73
2022/05/03 04:09:29;;;;;;;13.30;6.70;;;11.90;99.90;;;;;;4972628;28;20260;-74
2022/05/03 04:11:54;;;;;;;13.47;7.03;;;12.00;99.90;;;;;;4974075;28;20206;-74
2022/05/03 04:14:20;;;;;;;10.30;7.07;;;12.10;99.90;;;;;;4973532;28;20319;-74
2022/05/03 04:16:46;;;;;;;9.57;6.53;;;12.20;99.90;;;;;;4965374;28;20206;-74
2022/05/03 04:19:12;;;;;;;12.90;7.43;;;12.20;99.90;;;;;;4973176;28;20230;-75
2022/05/03 04:21:38;;;;;;;11.47;7.17;;;12.20;99.90;;;;;;4971845;28;20609;-74
2022/05/03 04:24:04;;;;;;;9.57;7.03;;;12.30;99.90;;;;;;4973248;28;20210;-75
2022/05/03 04:26:30;;;;;;;10.47;6.67;;;12.30;99.90;;;;;;4974731;28;20280;-74
2022/05/03 04:29:00;;;;;;;11.00;6.70;;;12.30;99.90;;;;;;4977903;28;20294;-74
2022/05/03 04:31:30;;;;;;;10.90;7.20;;;12.30;99.90;;;;;;4981034;28;20205;-74
2022/05/03 04:33:56;;;;;;;11.50;6.90;;;12.40;99.90;;;;;;4973016;28;20325;-74
2022/05/03 04:36:22;;;;;;;10.70;7.20;;;12.50;99.90;;;;;;4972886;28;20214;-72
2022/05/03 04:38:48;;;;;;;14.13;7.70;;;12.50;99.90;;;;;;4972634;28;20276;-74
2022/05/03 04:41:14;;;;;;;12.37;6.80;;;12.50;99.90;;;;;;4972985;28;20762;-74
2022/05/03 04:43:40;;;;;;;10.93;7.80;;;12.60;99.90;;;;;;4972387;28;20230;-74
2022/05/03 04:46:05;;;;;;;11.17;7.03;;;12.60;99.90;;;;;;4972798;28;20683;-74
2022/05/03 04:48:31;;;;;;;11.93;7.40;;;12.70;99.90;;;;;;4979721;28;20644;-74
2022/05/03 04:50:56;;;;;;;13.90;7.47;;;12.80;99.90;;;;;;4971191;28;20660;-74
2022/05/03 04:53:22;;;;;;;14.57;7.20;;;12.90;99.90;;;;;;4972351;28;20285;-74
2022/05/03 04:55:48;;;;;;;15.97;7.97;;;12.90;99.90;;;;;;4972717;28;20745;-74
2022/05/03 04:58:14;;;;;;;13.30;7.63;;;12.90;99.90;;;;;;4971970;28;20225;-74
2022/05/03 05:00:39;;;;;;;13.17;7.13;;;12.90;99.90;;;;;;4972345;28;20225;-74
2022/05/03 05:03:05;;;;;;;13.57;7.57;;;12.80;99.90;;;;;;4972430;28;20189;-73
2022/05/03 05:05:30;;;;;;;12.13;7.00;;;12.60;99.90;;;;;;4971529;28;20226;-76
2022/05/03 05:08:00;;;;;;;8.57;7.00;;;12.60;99.90;;;;;;4982222;28;20204;-74
2022/05/03 05:10:29;;;;;;;15.63;7.00;;;12.60;99.90;;;;;;4990584;28;20202;-74
2022/05/03 05:12:55;;;;;;;12.13;7.03;;;12.70;99.90;;;;;;4990635;28;20213;-73
2022/05/03 05:15:24;;;;;;;13.80;7.40;;;12.80;99.90;;;;;;4991727;28;20297;-73
2022/05/03 05:17:50;;;;;;;10.00;6.80;;;12.70;99.90;;;;;;4991889;28;20575;-74
2022/05/03 05:20:17;;;;;;;11.33;7.13;;;12.90;99.90;;;;;;4991398;28;20212;-74
2022/05/03 05:22:43;;;;;;;13.13;6.83;;;12.90;99.90;;;;;;4991514;28;20254;-73
2022/05/03 05:25:09;;;;;;;10.73;6.97;;;12.90;99.90;;;;;;4991860;28;20703;-73
2022/05/03 05:27:35;;;;;;;15.73;7.40;;;12.90;99.90;;;;;;4991564;28;20209;-74
2022/05/03 05:30:00;;;;;;;14.73;7.53;;;13.00;99.90;;;;;;4991046;28;20182;-74
2022/05/03 05:32:26;;;;;;;11.63;7.53;;;13.10;99.90;;;;;;4992042;28;20201;-73
2022/05/03 05:34:52;;;;;;;11.83;6.80;;;13.10;99.90;;;;;;4991746;28;20213;-74
2022/05/03 05:37:17;;;;;;;9.40;6.10;;;13.10;99.90;;;;;;4986229;28;20209;-75
2022/05/03 05:39:44;;;;;;;13.47;6.47;;;13.10;99.90;;;;;;4989462;28;20321;-74
2022/05/03 05:42:11;;;;;;;12.53;6.50;;;13.10;99.90;;;;;;4988689;28;20196;-75
2022/05/03 05:44:37;;;;;;;9.13;5.47;;;13.30;99.90;;;;;;4990464;28;20213;-74
2022/05/03 05:47:05;;;;;;;10.53;5.70;;;13.40;99.90;;;;;;4991601;28;20328;-74
2022/05/03 05:49:30;;;;;;;10.57;5.93;;;13.50;99.90;;;;;;4982776;28;20217;-75
2022/05/03 05:53:31;;;;;;;12.67;6.33;;;13.70;99.90;;;;;;4990376;28;20205;-75
2022/05/03 05:54:41;;;;;;;10.00;6.03;;;13.90;99.90;;;;;;4991238;28;20682;-74
2022/05/03 05:57:07;;;;;;;9.35;5.63;;;14.00;99.90;;;;;;4990226;28;20201;-74
2022/05/03 05:59:33;;;;;;;12.30;5.43;;;14.10;99.90;;;;;;4989916;28;20205;-74
2022/05/03 06:01:59;;;;;;;9.80;5.75;;;14.30;99.90;;;;;;4990132;28;20205;-75
2022/05/03 06:04:27;;;;;;;11.93;6.78;;;14.50;99.90;;;;;;4991889;28;20725;-75
2022/05/03 06:06:52;;;;;;;9.40;5.65;;;14.60;99.90;;;;;;4985964;28;20288;-74
2022/05/03 06:09:18;;;;;;;11.30;6.00;;;14.80;99.90;;;;;;4989338;28;20229;-74
2022/05/03 06:11:43;;;;;;;12.35;6.18;;;14.80;99.90;;;;;;4991761;28;20528;-75
2022/05/03 06:14:09;;;;;;;6.88;4.93;;;14.90;99.90;;;;;;4992786;28;20213;-74
2022/05/03 06:16:47;;;;;;;8.57;5.22;;;15.00;99.90;;;;;;4994907;28;20206;-74
2022/05/03 06:19:13;;;;;;;7.65;4.85;;;15.50;99.90;;;;;;4993194;28;20263;-74
2022/05/03 06:21:38;;;;;;;5.20;4.43;;;15.80;99.90;;;;;;4994824;28;20652;-74
2022/05/03 06:24:06;;;;;;;11.38;4.90;;;16.00;99.90;;;;;;4994824;28;20197;-75
2022/05/03 06:26:31;;;;;;;8.25;3.83;;;15.90;99.90;;;;;;4993865;28;20224;-74
2022/05/03 06:28:57;;;;;;;5.85;3.38;;;16.00;99.90;;;;;;4994305;28;20225;-74
2022/05/03 06:31:24;;;;;;;7.80;3.42;;;16.50;99.90;;;;;;4994752;28;20285;-75
2022/05/03 06:33:49;;;;;;;6.68;3.22;;;18.00;99.90;;;;;;4994857;28;20267;-75
2022/05/03 06:36:15;;;;;;;6.68;2.35;;;19.30;99.90;;;;;;4986313;28;20272;-76
2022/05/03 06:38:41;;;;;;;4.68;2.25;;;21.00;99.90;;;;;;4993525;28;20591;-75
2022/05/03 06:41:08;;;;;;;2.70;1.73;;;22.40;97.60;;;;;;4993439;28;20698;-76
2022/05/03 06:43:34;;;;;;;3.67;1.88;;;23.70;94.10;;;;;;4994214;28;20283;-76
2022/05/03 06:45:59;;;;;;;4.25;2.20;;;24.50;90.40;;;;;;5050759;23;20310;-76
2022/05/03 06:48:25;;;;;;;2.70;1.73;;;25.00;85.20;;;;;;5032322;28;20662;-77
2022/05/03 06:50:50;;;;;;;3.65;2.00;;;25.50;82.70;;;;;;5034223;28;20179;-78
2022/05/03 06:53:16;;;;;;;5.00;2.20;;;25.30;79.00;;;;;;5032345;28;20232;-79
2022/05/03 06:55:41;;;;;;;4.00;2.05;;;25.90;78.30;;;;;;5032022;28;20212;-78
2022/05/03 06:58:07;;;;;;;2.20;1.80;;;26.10;75.80;;;;;;5032897;28;20216;-78
2022/05/03 07:00:32;;;;;;;5.03;1.48;;;26.60;73.80;;;;;;5032084;28;20731;-78
2022/05/03 07:02:58;;;;;;;4.13;1.92;;;27.00;72.50;;;;;;5033778;28;20236;-76
2022/05/03 07:05:23;;;;;;;3.00;1.60;;;27.20;71.40;;;;;;5032906;28;20242;-76
2022/05/03 07:07:49;;;;;;;3.03;1.67;;;27.90;68.90;;;;;;5033704;28;20200;-77
2022/05/03 07:10:14;;;;;;;3.33;2.10;;;28.50;67.50;;;;;;5033298;28;20704;-80
2022/05/03 07:12:40;;;;;;;5.13;2.25;;;29.10;66.00;;;;;;5034588;28;20212;-79
2022/05/03 07:15:07;;;;;;;3.05;1.88;;;28.90;64.70;;;;;;5040204;28;20664;-77
2022/05/03 07:23:01;;;;;;;5.47;1.60;;;26.30;67.20;;;;;;5054227;28;20702;-77
2022/05/03 07:25:26;;;;;;;3.15;1.85;;;26.40;66.30;;;;;;5034933;28;20209;-79
2022/05/03 07:27:52;;;;;;;3.60;2.03;;;28.00;63.40;;;;;;5031635;28;20201;-75
2022/05/03 07:30:18;;;;;;;3.08;1.88;;;25.80;64.90;;;;;;5052666;28;20204;-74
2022/05/03 07:32:44;;;;;;;6.55;2.10;;;25.70;67.60;;;;;;5040817;28;20183;-75
2022/05/03 07:35:11;;;;;;;7.45;3.45;;;25.30;68.90;;;;;;5030793;28;20693;-74
2022/05/03 07:37:37;;;;;;;4.00;2.25;;;24.40;70.90;;;;;;5031244;28;20226;-75
2022/05/03 07:40:05;;;;;;;6.57;2.17;;;23.60;71.10;;;;;;5031490;28;20232;-74
2022/05/03 07:42:31;;;;;;;5.05;2.00;;;22.50;72.80;;;;;;5030890;28;20208;-74
2022/05/03 07:44:56;;;;;;;3.70;2.03;;;23.20;73.10;;;;;;5037699;28;20290;-72
2022/05/03 07:47:22;;;;;;;5.00;2.15;;;24.90;72.30;;;;;;5050896;28;20207;-73
2022/05/03 07:49:47;;;;;;;3.78;2.40;;;26.10;68.80;;;;;;5051471;28;20207;-75
2022/05/03 07:52:13;;;;;;;4.35;2.10;;;26.90;67.80;;;;;;5050953;28;20199;-76
2022/05/03 07:54:43;;;;;;;2.53;1.67;;;27.30;66.90;;;;;;5050724;28;20218;-74
2022/05/03 07:57:09;;;;;;;4.30;2.13;;;28.00;64.10;;;;;;5052810;28;20282;-77
2022/05/03 07:59:35;;;;;;;2.75;1.85;;;27.70;63.80;;;;;;5050866;28;20167;-76
2022/05/03 08:02:01;;;;;;;3.40;2.47;;;26.10;63.20;;;;;;5052126;28;20590;-76
2022/05/03 08:04:27;;;;;;;3.42;2.15;;;24.30;67.90;;;;;;5050668;28;20287;-78
2022/05/03 08:06:52;;;;;;;2.88;2.30;;;23.60;70.90;;;;;;5042606;28;20291;-77
2022/05/03 08:09:18;;;;;;;4.70;2.33;;;24.70;71.00;;;;;;5046500;28;20259;-74
2022/05/03 08:11:44;;;;;;;4.07;2.47;;;25.40;69.60;;;;;;5052113;28;20172;-76
2022/05/03 08:14:09;;;;;;;4.72;2.80;;;26.10;67.80;;;;;;5050407;28;20200;-77
2022/05/03 08:16:35;;;;;;;6.45;3.03;;;26.50;67.70;;;;;;5051926;28;20255;-76
2022/05/03 08:19:00;;;;;;;4.47;2.28;;;26.10;67.80;;;;;;5050969;28;20261;-76
2022/05/03 08:21:27;;;;;;;3.78;2.47;;;25.30;68.80;;;;;;5040406;28;20772;-72
2022/05/03 08:23:53;;;;;;;7.05;2.75;;;24.20;70.90;;;;;;5032204;28;20172;-76
2022/05/03 08:26:19;;;;;;;4.80;2.38;;;23.10;72.80;;;;;;5030595;28;20208;-80
2022/05/03 08:28:45;;;;;;;4.85;2.40;;;22.10;75.00;;;;;;5043803;28;20302;-81
2022/05/03 08:31:11;;;;;;;5.50;2.90;;;21.70;77.30;;;;;;5052764;28;20780;-81
2022/05/03 08:33:36;;;;;;;4.07;2.58;;;20.80;79.10;;;;;;5029547;28;20295;-82
2022/05/03 08:36:03;;;;;;;4.63;2.65;;;20.70;79.90;;;;;;5032367;28;20640;-81
2022/05/03 08:44:01;;;;;;;5.22;2.70;;;20.10;81.90;;;;;;5054637;28;20206;-81
2022/05/03 08:46:29;;;;;;;5.90;2.72;;;20.80;82.10;;;;;;5055821;28;20238;-82
2022/05/03 08:49:02;;;;;;;4.32;2.90;;;20.80;81.30;;;;;;5040815;28;20200;-80
2022/05/03 08:51:29;;;;;;;6.90;2.60;;;20.40;82.40;;;;;;5035560;28;20212;-82
2022/05/03 08:53:56;;;;;;;4.45;2.30;;;20.70;83.30;;;;;;5035467;28;20192;-82
2022/05/03 08:56:22;;;;;;;7.40;2.28;;;20.90;82.20;;;;;;5034747;28;20256;-80
2022/05/03 08:58:48;;;;;;;6.38;2.55;;;21.20;81.80;;;;;;5036095;28;20223;-81
2022/05/03 09:01:14;;;;;;;5.55;2.40;;;22.00;80.90;;;;;;5033167;28;20201;-81
2022/05/03 09:03:39;;;;;;;4.18;2.47;;;22.60;78.20;;;;;;5034495;28;20614;-82
2022/05/03 09:06:06;;;;;;;4.15;2.30;;;22.90;77.20;;;;;;5033574;28;20204;-81
2022/05/03 09:08:33;;;;;;;7.88;3.05;;;22.80;76.50;;;;;;5050804;28;20229;-82
2022/05/03 09:10:59;;;;;;;8.60;3.13;;;21.80;83.40;;;;;;5033452;28;20203;-80
2022/05/03 09:13:26;;;;;;;9.32;2.88;;;22.40;85.40;;;;;;5034349;28;20204;-81
2022/05/03 09:15:56;;;;;;;3.70;2.15;;;23.10;79.10;;;;;;5033672;28;20208;-81
2022/05/03 09:18:31;;;;;;;5.75;2.08;;;23.80;78.40;;;;;;5039680;28;20294;-80
2022/05/03 09:23:46;;;;;;;2.47;2.08;;;24.60;82.00;;;;;;5020490;28;20211;-75
2022/05/03 09:26:21;;;;;;;22.33;12.68;;;24.60;73.90;;;;;;5027746;28;20307;-75
2022/05/03 09:28:55;;;;;;;2.80;1.90;;;24.40;75.60;;;;;;5039582;28;20199;-75
2022/05/03 09:31:32;;;;;;;4.40;2.00;;;23.90;76.90;;;;;;5050299;28;20206;-80
2022/05/03 09:34:00;;;;;;;4.28;2.75;;;23.70;76.70;;;;;;5037062;28;20211;-77
2022/05/03 09:36:46;;;;;;;5.10;2.30;;;23.50;78.20;;;;;;5026614;28;20215;-84
2022/05/03 09:39:46;;;;;;;22.95;12.63;;;23.40;78.70;;;;;;5029500;28;20285;-76
2022/05/03 09:42:14;;;;;;;4.93;3.50;;;23.30;78.30;;;;;;5023003;28;20680;-81
2022/05/03 09:45:03;;;;;;;5.30;2.15;;;23.50;77.50;;;;;;5038774;28;20223;-80
2022/05/03 09:47:34;;;;;;;3.72;1.90;;;23.40;76.70;;;;;;5045838;28;20644;-81
2022/05/03 09:50:01;;;;;;;3.08;1.65;;;23.10;76.30;;;;;;5056442;28;20218;-80
2022/05/03 09:52:28;;;;;;;5.55;1.92;;;23.10;75.80;;;;;;5055302;28;20207;-77
2022/05/03 09:54:59;;;;;;;7.55;1.80;;;23.20;77.00;;;;;;5053497;28;20288;-78
2022/05/03 09:57:26;;;;;;;8.20;2.25;;;23.20;77.30;;;;;;5055439;28;20651;-79
2022/05/03 09:59:54;;;;;;;16.73;6.00;;;22.90;77.40;;;;;;5057034;28;20183;-79
2022/05/03 10:02:22;;;;;;;7.30;4.43;;;23.10;76.50;;;;;;5053568;28;20872;-78
2022/05/03 10:04:50;;;;;;;7.22;2.65;;;23.80;76.00;;;;;;5056050;28;20211;-76
2022/05/03 10:07:16;;;;;;;4.85;2.05;;;23.80;75.30;;;;;;5040164;28;20251;-76
2022/05/03 10:09:43;;;;;;;3.63;1.83;;;23.80;76.00;;;;;;5033013;28;20200;-77
2022/05/03 10:12:11;;;;;;;4.60;2.00;;;23.50;76.00;;;;;;5035024;28;20172;-77
2022/05/03 10:14:37;;;;;;;4.20;1.83;;;23.20;75.40;;;;;;5034887;28;20223;-77
2022/05/03 10:22:38;;;;;;;7.10;5.35;;;23.30;74.90;;;;;;5059769;28;20261;-84
2022/05/03 10:25:05;;;;;;;4.03;1.90;;;23.00;76.10;;;;;;5055990;28;20238;-84
2022/05/03 10:27:32;;;;;;;2.85;1.88;;;23.10;75.10;;;;;;5054271;28;20216;-74
2022/05/03 10:30:20;;;;;;;1.73;1.60;;;22.80;77.10;;;;;;5053875;28;20168;-73
2022/05/03 10:33:05;;;;;;;2.42;1.40;;;23.00;75.70;;;;;;5057155;28;20186;-80
2022/05/03 10:35:34;;;;;;;4.78;1.42;;;23.50;74.40;;;;;;5055201;28;20204;-78
2022/05/03 10:38:00;;;;;;;2.10;1.63;;;23.10;73.60;;;;;;5034491;28;20223;-74
2022/05/03 10:40:30;;;;;;;2.08;1.50;;;22.80;75.00;;;;;;5033770;28;20192;-75
2022/05/03 10:43:10;;;;;;;1.52;1.40;;;23.00;74.00;;;;;;5032735;28;20203;-76
2022/05/03 10:45:57;;;;;;;3.80;1.50;;;23.00;74.10;;;;;;5036732;28;20219;-73
2022/05/03 10:48:25;;;;;;;1.92;1.30;;;22.60;74.40;;;;;;5033078;28;20585;-73
2022/05/03 10:50:52;;;;;;;3.53;2.20;;;22.80;74.90;;;;;;5034316;28;20179;-73
2022/05/03 10:53:20;;;;;;;35.50;16.13;;;22.90;74.70;;;;;;5038418;28;20200;-81
2022/05/03 10:56:08;;;;;;;4.90;2.30;;;23.00;75.40;;;;;;5039009;28;20204;-81
2022/05/03 10:58:39;;;;;;;2.42;1.30;;;23.00;74.50;;;;;;5038201;28;20235;-77
2022/05/03 11:01:08;;;;;;;2.67;1.25;;;22.40;74.20;;;;;;5033186;28;20204;-76
2022/05/03 11:03:39;;;;;;;3.47;1.23;;;22.30;75.60;;;;;;5037228;28;20212;-76
2022/05/03 11:06:18;;;;;;;2.25;1.40;;;22.40;75.40;;;;;;5039639;28;20203;-78
2022/05/03 11:11:42;;;;;;;2.50;1.75;;;22.00;75.00;;;;;;5033818;28;20295;-73
2022/05/03 11:14:20;;;;;;;2.72;1.42;;;21.90;74.50;;;;;;5033818;28;20241;-74
2022/05/03 11:16:53;;;;;;;4.15;2.38;;;22.10;74.50;;;;;;5037429;28;20195;-74
2022/05/03 11:19:20;;;;;;;4.60;1.55;;;22.00;74.40;;;;;;5052666;28;20204;-76
2022/05/03 11:21:47;;;;;;;2.78;1.13;;;22.10;75.10;;;;;;5056741;28;20200;-77
2022/05/03 11:24:30;;;;;;;1.42;1.30;;;22.00;75.00;;;;;;5049120;28;20173;-77
2022/05/03 11:26:57;;;;;;;2.00;1.25;;;22.10;75.00;;;;;;5035600;28;20206;-75
2022/05/03 11:29:56;;;;;;;1.45;1.33;;;22.30;75.00;;;;;;5032821;28;20582;-74
2022/05/03 11:32:37;;;;;;;1.30;1.20;;;22.20;75.20;;;;;;5033812;28;20204;-74
2022/05/03 11:35:20;;;;;;;1.45;1.35;;;22.00;75.30;;;;;;5033238;28;20579;-77
2022/05/03 11:37:52;;;;;;;4.38;1.50;;;22.30;76.10;;;;;;5031465;28;20208;-74
2022/05/03 11:40:20;;;;;;;3.72;1.00;;;22.00;75.40;;;;;;5032499;28;20208;-74
2022/05/03 11:42:46;;;;;;;0.75;0.75;;;22.00;76.60;;;;;;5033017;28;20207;-71
2022/05/03 11:45:14;;;;;;;0.90;0.80;;;22.20;76.20;;;;;;5031324;28;20263;-74
2022/05/03 11:47:45;;;;;;;3.03;1.33;;;22.10;76.40;;;;;;5032724;28;20176;-74
2022/05/03 11:56:04;;;;;;;2.00;1.10;;;22.00;75.90;;;;;;5034314;28;20219;-78
2022/05/03 11:58:31;;;;;;;1.73;0.88;;;22.20;76.00;;;;;;5031034;28;20220;-76
2022/05/03 12:00:57;;;;;;;2.33;1.40;;;22.30;76.80;;;;;;5030696;28;20204;-77
2022/05/03 12:03:23;;;;;;;1.95;0.98;;;22.50;77.20;;;;;;5031040;28;20216;-77
2022/05/03 12:06:00;;;;;;;1.30;0.98;;;22.70;76.50;;;;;;5032570;28;20196;-75
2022/05/03 12:08:26;;;;;;;1.98;0.80;;;22.40;76.50;;;;;;5030827;28;20207;-77
2022/05/03 12:10:51;;;;;;;2.13;1.20;;;22.50;76.80;;;;;;5031373;28;20204;-74
2022/05/03 12:13:28;;;;;;;1.85;1.60;;;22.20;77.50;;;;;;5031892;28;20196;-75
2022/05/03 12:15:57;;;;;;;1.73;0.98;;;22.10;77.70;;;;;;5032830;28;20243;-75
2022/05/03 12:18:30;;;;;;;3.90;1.10;;;22.20;77.40;;;;;;5031893;28;20243;-75
2022/05/03 12:21:06;;;;;;;3.00;1.15;;;22.00;77.80;;;;;;5033172;28;20179;-75
2022/05/03 12:23:34;;;;;;;1.65;0.90;;;21.70;77.90;;;;;;5032636;28;20212;-75
2022/05/03 12:26:13;;;;;;;3.50;1.85;;;21.60;79.30;;;;;;5032449;28;20274;-75
2022/05/03 12:28:44;;;;;;;2.03;1.45;;;21.50;79.10;;;;;;5031468;28;20255;-75
2022/05/03 12:31:12;;;;;;;0.93;0.88;;;21.50;79.60;;;;;;5032007;28;20250;-76
2022/05/03 12:33:49;;;;;;;3.83;1.00;;;21.70;79.80;;;;;;5030973;28;20212;-75
2022/05/03 12:36:27;;;;;;;2.60;1.40;;;21.70;78.80;;;;;;5032171;28;20467;-73
2022/05/03 12:38:52;;;;;;;2.63;1.00;;;21.50;78.80;;;;;;5031082;28;20735;-76
2022/05/03 12:41:31;;;;;;;1.25;1.10;;;21.40;79.20;;;;;;5032311;28;20212;-75
2022/05/03 12:44:09;;;;;;;1.27;1.05;;;21.30;80.00;;;;;;5032447;28;20212;-76
2022/05/03 12:46:35;;;;;;;1.20;1.10;;;21.40;79.80;;;;;;5029800;23;20237;-75
2022/05/03 12:49:04;;;;;;;2.95;2.05;;;21.20;80.20;;;;;;5011392;28;20592;-77
2022/05/03 12:51:30;;;;;;;1.65;1.30;;;21.20;81.70;;;;;;5010481;28;20742;-74
2022/05/03 12:53:56;;;;;;;2.15;0.90;;;21.20;82.40;;;;;;5012543;28;20256;-75
2022/05/03 12:59:05;;;;;;;2.00;1.83;;;20.90;81.80;;;;;;5011236;28;20216;-75
2022/05/03 13:01:32;;;;;;;1.88;1.00;;;21.00;81.80;;;;;;5011500;28;20712;-75
2022/05/03 13:03:58;;;;;;;1.20;0.90;;;21.00;82.20;;;;;;5011394;28;20355;-74
2022/05/03 13:06:24;;;;;;;1.70;1.02;;;20.90;82.20;;;;;;5008816;28;20217;-79
2022/05/03 13:08:50;;;;;;;2.30;1.85;;;20.80;83.00;;;;;;4997729;28;20205;-78
2022/05/03 13:11:16;;;;;;;1.98;0.90;;;20.90;84.80;;;;;;4986670;28;20264;-73
2022/05/03 13:13:42;;;;;;;3.28;0.95;;;21.00;83.70;;;;;;5008369;28;20204;-72
2022/05/03 13:16:08;;;;;;;2.17;1.15;;;20.90;82.70;;;;;;5003371;28;20224;-70
2022/05/03 13:18:33;;;;;;;2.92;2.00;;;21.00;84.00;;;;;;5009479;28;20319;-72
2022/05/03 13:20:59;;;;;;;1.00;0.60;;;20.90;83.80;;;;;;5011390;28;20184;-72
2022/05/03 13:23:24;;;;;;;1.13;1.02;;;20.90;83.60;;;;;;5010126;28;20580;-72
2022/05/03 13:25:50;;;;;;;1.48;0.88;;;21.00;83.00;;;;;;5010951;28;20602;-71
2022/05/03 13:28:15;;;;;;;1.67;0.90;;;20.80;82.40;;;;;;5010040;28;20208;-71
2022/05/03 13:30:42;;;;;;;2.88;0.80;;;20.90;82.90;;;;;;5010954;28;20204;-72
2022/05/03 13:33:08;;;;;;;1.55;0.77;;;21.20;82.80;;;;;;5011125;28;20173;-72
2022/05/03 13:41:02;;;;;;;1.88;1.15;;;21.30;83.10;;;;;;5011156;28;20239;-71
2022/05/03 13:43:28;;;;;;;3.13;2.53;;;21.20;84.30;;;;;;5009438;28;20225;-72